• Join FlightAware (Why Join?)
  • Login
  • US Flag 
10:19PM EDT


 

Airport Tracker/Info


-or-


 

Live Flight TrackerFlight Track Log ✈ QFA790 ✈ 29-Aug-2013 ✈ YSSY / SYD - YBAS / ASP

Flight Track Log - Related Links

Times and Time Zones

All times are in EDT time to prevent confusion due to time zone crossing. See the QFA790 flight status page for this flight to view local times or setup timezone preferences in your user account.

Time Position Orientation Groundspeed Altitude Reporting Facility
EDT Latitude Longitude Course Direction KTS MPH feet Rate Location/Type
07:52PM -33.9500 151.1770 345° North 150 173  Level FlightAware
07:52PM -33.9310 151.1720 348° North 170 196 400 1,560 Climbing FlightAware
07:53PM -33.9200 151.1670 339° North 171 197 1,000 1,980 Climbing FlightAware
07:53PM -33.9170 151.1640 320° Northwest 174 200 1,100 1,080 Climbing FlightAware
07:53PM -33.9110 151.1540 306° West 203 234 1,300 1,500 Climbing FlightAware
07:53PM -33.9050 151.1440 306° West 218 251 1,600 2,580 Climbing FlightAware
07:53PM -33.8940 151.1230 302° West 222 255 2,600 2,700 Climbing FlightAware
07:54PM -33.8860 151.1080 303° West 228 262 3,200 1,260 Climbing FlightAware
07:54PM -33.8730 151.0840 303° West 270 311 3,400 900 Climbing FlightAware
07:54PM -33.8590 151.0560 301° West 301 346 3,800 1,260 Climbing FlightAware
07:54PM -33.8470 151.0340 303° West 319 367 4,100 2,040 Climbing FlightAware
07:55PM -33.8330 151.0030 299° West 333 383 5,000 3,300 Climbing FlightAware
07:55PM -33.8220 150.9660 290° West 333 383 6,300 3,780 Climbing FlightAware
07:55PM -33.8190 150.9480 281° West 333 383 6,900 2,700 Climbing FlightAware
07:56PM -33.8130 150.9150 282° West 339 390 7,700 2,760 Climbing FlightAware
07:56PM -33.8060 150.8720 281° West 348 400 8,800 3,000 Climbing FlightAware
07:57PM -33.7950 150.8050 281° West 352 405 10,500 3,240 Climbing FlightAware
07:57PM -33.7840 150.7380 281° West 337 388 12,600 3,120 Climbing Aus ATC (RADAR)
07:57PM -33.7840 150.7370 281° West 356 410 12,300 1,680 Descending FlightAware
07:58PM -33.7730 150.6690 281° West 366 421 13,600 2,880 Climbing FlightAware
07:58PM -33.7610 150.5990 282° West 356 410 15,700 2,760 Climbing FlightAware
07:59PM -33.7510 150.5410 282° West 367 422 16,600 2,100 Climbing FlightAware
07:59PM -33.7396 150.4696 282° West 358 412 18,000 1,680 Climbing Aus ATC (RADAR)
07:59PM -33.7380 150.4580 282° West 383 441 17,800 660 Descending FlightAware
08:00PM -33.7240 150.3790 282° West 410 472 18,500 1,500 Climbing FlightAware
08:01PM -33.7110 150.3030 282° West 415 478 19,600 2,400 Climbing FlightAware
08:01PM -33.6911 150.2266 282° West 403 464 21,200 2,400 Climbing Aus ATC (RADAR)
08:01PM -33.6910 150.2270 282° West 419 482 20,900 1,860 Descending FlightAware
08:02PM -33.6700 150.1488 282° West 406 467 22,300 1,860 Climbing Aus ATC (RADAR)
08:02PM -33.6700 150.1510 282° West 423 487 22,000 1,140 Descending FlightAware
08:02PM -33.6490 150.0710 287° West 430 495 23,000 1,440 Climbing FlightAware
08:03PM -33.6320 150.0100 287° West 433 498 23,600 1,920 Climbing FlightAware
08:03PM -33.6264 149.9902 287° West 420 483 24,100 1,440 Climbing Aus ATC (RADAR)
08:04PM -33.6040 149.9070 288° West 443 510 24,600 960 Climbing FlightAware
08:04PM -33.5810 149.8250 289° West 455 524 25,300 1,200 Climbing FlightAware
08:05PM -33.5580 149.7400 288° West 460 529 26,000 1,260 Climbing FlightAware
08:05PM -33.5340 149.6550 289° West 463 533 26,800 1,500 Climbing FlightAware
08:06PM -33.5100 149.5700 289° West 460 529 27,800 2,040 Climbing FlightAware
08:06PM -33.4870 149.4860 288° West 445 512 29,200 2,640 Climbing FlightAware
08:07PM -33.4650 149.4070 288° West 424 488 30,900 2,100 Climbing FlightAware
08:08PM -33.4410 149.3200 288° West 424 488 31,800 1,560 Climbing FlightAware
08:08PM -33.4220 149.2510 288° West 416 479 32,800 1,920 Climbing FlightAware
08:09PM -33.4010 149.1770 289° West 401 461 33,900 1,020 Climbing FlightAware
08:09PM -33.3800 149.1030 289° West 406 467 34,000 60 Climbing FlightAware
08:10PM -33.3580 149.0290 290° West 408 470 34,000  Level FlightAware
08:11PM -33.3400 148.9650 289° West 409 471 34,000  Level FlightAware
08:11PM -33.3130 148.8690 289° West 405 466 34,000  Level FlightAware
08:12PM -33.2950 148.8060 289° West 402 463 34,000  Level FlightAware
08:12PM -33.2750 148.7340 288° West 401 461 34,000  Level FlightAware
08:13PM -33.2500 148.6490 289° West 400 460 34,000  Level FlightAware
08:13PM -33.2320 148.5860 289° West 399 459 34,000  Level FlightAware
08:14PM -33.2080 148.5030 289° West 399 459 34,000  Level FlightAware
08:15PM -33.1910 148.4430 289° West 396 456 34,000  Level FlightAware
08:15PM -33.1690 148.3690 290° West 394 453 34,000  Level FlightAware
08:16PM -33.1490 148.2990 289° West 392 451 34,000 240 Level FlightAware
08:16PM -33.1268 148.2302 289° West 386 444 34,300  Climbing Aus ATC (RADAR)
08:16PM -33.1260 148.2300 289° West 394 453 34,000  Descending FlightAware
08:17PM -33.0924 148.1656 289° West 392 451 34,300  Climbing Aus ATC (RADAR)
08:17PM -33.0930 148.1660 289° West 396 456 34,000 -420 Descending FlightAware
08:18PM -33.0470 148.0820 303° West 393 452 34,000  Level FlightAware
08:18PM -33.0170 148.0270 303° West 390 449 34,000  Level FlightAware
08:19PM -32.9820 147.9620 303° West 389 448 34,000  Level FlightAware
08:19PM -32.9430 147.8920 304° West 386 444 34,000  Level FlightAware
08:20PM -32.9100 147.8290 302° West 385 443 34,000  Level FlightAware
08:21PM -32.8800 147.7760 304° West 385 443 34,000  Level FlightAware
08:21PM -32.8420 147.7050 302° West 384 442 34,000  Level FlightAware
08:22PM -32.8130 147.6520 303° West 383 441 34,000  Level FlightAware
08:22PM -32.7790 147.5900 303° West 383 441 34,000 60 Level FlightAware
08:23PM -32.7425 147.5239 303° West 377 434 34,100  Climbing Aus ATC (RADAR)
08:23PM -32.7400 147.5200 303° West 380 437 34,000 -180 Descending FlightAware
08:24PM -32.7050 147.4570 303° West 379 436 34,000  Level FlightAware
08:24PM -32.6730 147.3980 303° West 377 434 34,000  Level FlightAware
08:25PM -32.6440 147.3460 304° West 372 428 34,000 60 Level FlightAware
08:25PM -32.6138 147.2901 304° West 372 428 34,100  Climbing Aus ATC (RADAR)
08:25PM -32.6110 147.2860 304° West 371 427 34,000 -180 Descending FlightAware
08:26PM -32.5730 147.2180 304° West 370 426 34,000  Level FlightAware
08:26PM -32.5390 147.1570 303° West 369 425 34,000  Level FlightAware
08:27PM -32.5010 147.0890 304° West 368 423 34,000  Level FlightAware
08:28PM -32.4680 147.0300 304° West 367 422 34,000  Level FlightAware
08:28PM -32.4350 146.9710 304° West 366 421 34,000  Level FlightAware
08:29PM -32.4010 146.9100 303° West 365 420 34,000  Level FlightAware
08:29PM -32.3690 146.8530 304° West 364 419 34,000  Level FlightAware
08:30PM -32.3360 146.7940 303° West 363 418 34,000  Level FlightAware
08:31PM -32.3030 146.7350 303° West 364 419 34,000  Level FlightAware
08:31PM -32.2760 146.6860 303° West 363 418 34,000 60 Level FlightAware
08:32PM -32.2454 146.6322 303° West 365 420 34,100  Climbing Aus ATC (RADAR)
08:32PM -32.2370 146.6170 303° West 364 419 34,000 -180 Descending FlightAware
08:32PM -32.2040 146.5580 303° West 363 418 34,000  Level FlightAware
08:33PM -32.1750 146.5070 304° West 363 418 34,000  Level FlightAware
08:34PM -32.1380 146.4420 304° West 362 417 34,000  Level FlightAware
08:34PM -32.1040 146.3830 304° West 360 414 34,000  Level FlightAware
08:35PM -32.0760 146.3340 304° West 358 412 34,000  Level FlightAware
08:35PM -32.0440 146.2760 303° West 357 411 34,000  Level FlightAware
08:36PM -32.0070 146.2120 304° West 356 410 34,000  Level FlightAware
08:36PM -31.9730 146.1520 304° West 354 407 34,000  Level FlightAware
08:37PM -31.9380 146.0910 304° West 353 406 34,000  Level FlightAware
08:38PM -31.9040 146.0330 305° West 352 405 34,000 60 Level FlightAware
08:38PM -31.8756 145.9864 305° West 353 406 34,100  Climbing Aus ATC (RADAR)
08:38PM -31.8730 145.9780 305° West 355 409 34,000 -180 Descending FlightAware
08:39PM -31.8410 145.9210 303° West 355 409 34,000  Level FlightAware
08:39PM -31.8080 145.8640 304° West 354 407 34,000  Level FlightAware
08:40PM -31.7770 145.8100 304° West 353 406 34,000  Level FlightAware
08:41PM -31.7440 145.7530 304° West 354 407 34,000  Level FlightAware
08:41PM -31.7110 145.6960 304° West 351 404 34,000  Level FlightAware
08:42PM -31.6800 145.6420 304° West 350 403 34,000  Level FlightAware
08:42PM -31.6480 145.5880 305° West 352 405 34,000  Level FlightAware
08:43PM -31.6210 145.5400 303° West 352 405 34,000  Level FlightAware
08:44PM -31.5840 145.4770 305° West 352 405 34,000  Level FlightAware
08:44PM -31.5560 145.4270 303° West 352 405 34,000  Level FlightAware
08:45PM -31.5200 145.3640 304° West 353 406 34,000  Level FlightAware
08:45PM -31.4940 145.3170 303° West 353 406 34,000  Level FlightAware
08:46PM -31.4660 145.2670 303° West 353 406 34,000  Level FlightAware
08:47PM -31.4390 145.2180 303° West 353 406 34,000  Level FlightAware
08:47PM -31.4120 145.1680 302° West 353 406 34,000  Level FlightAware
08:48PM -31.3840 145.1190 304° West 353 406 34,000  Level FlightAware
08:48PM -31.3570 145.0700 303° West 353 406 34,000  Level FlightAware
08:49PM -31.3300 145.0210 303° West 353 406 34,000  Level FlightAware
08:50PM -31.3030 144.9720 303° West 353 406 34,000  Level FlightAware
08:50PM -31.2750 144.9230 304° West 353 406 34,000  Level FlightAware
08:51PM -31.2480 144.8740 303° West 353 406 34,000  Level FlightAware
08:51PM -31.1750 144.7847 142° Southeast 34,000  Level Aus ATC (Calculated)
08:51PM -31.2230 144.8280 303° West 353 406 34,000  Level FlightAware
08:52PM -31.1950 144.7790 304° West 353 406 34,000  Level FlightAware
08:53PM -31.1680 144.7300 303° West 353 406 34,000  Level FlightAware
08:53PM -31.1410 144.6810 303° West 353 406 34,000  Level FlightAware
08:54PM -31.1050 144.6150 302° West 353 406 34,000  Level FlightAware
08:56PM -30.8953 144.3141 305° West 34,000  Level Aus ATC (Calculated)
08:57PM -30.9576 144.3755 306° West  Level FlightAware Approximate
08:58PM -30.8066 144.1661 305° West  Level FlightAware Approximate
08:59PM -30.7487 144.0697 305° West  Level FlightAware Approximate
09:00PM -30.6907 143.9734 305° West  Level FlightAware Approximate
09:01PM -30.6326 143.8773 305° West  Level FlightAware Approximate
09:01PM -30.6255 143.8656 305° West 34,000  Level Aus ATC (Calculated)
09:03PM -30.5364 143.7184 305° West  Level FlightAware Approximate
09:04PM -30.4781 143.6226 305° West  Level FlightAware Approximate
09:05PM -30.4198 143.5269 305° West  Level FlightAware Approximate
09:06PM -30.3614 143.4313 305° West  Level FlightAware Approximate
09:06PM -30.3430 143.4011 305° West 34,000  Level Aus ATC (Calculated)
09:08PM -30.2518 143.2524 305° West  Level FlightAware Approximate
09:09PM -30.1929 143.1566 305° West  Level FlightAware Approximate
09:09PM -30.2153 143.1929 306° West 34,000  Level Aus ATC (Calculated)
09:10PM -30.1361 143.0648 306° West 36,000  Climbing Aus ATC (Calculated)
09:11PM -30.1679 143.1160 306° West  Level FlightAware Approximate
09:12PM -30.0691 142.9566 306° West  Level FlightAware Approximate
09:12PM -30.0469 142.9209 306° West 36,000  Level Aus ATC (Calculated)
09:13PM -29.9725 142.8011 306° West 36,000 -300 Level Aus ATC (Calculated)
09:14PM -29.9403 142.7493 306° West  Level FlightAware Approximate
09:14PM -29.9166 142.7114 306° West 36,000  Level Aus ATC (Calculated)
09:16PM -29.8295 142.5720 306° West  Level FlightAware Approximate
09:17PM -29.8478 142.6014 306° West  Level FlightAware Approximate
09:17PM -29.7618 142.4643 306° West 36,000  Level Aus ATC (Calculated)
09:17PM -29.7618 142.4643 306° West 36,000 -780 Level Aus ATC (Calculated)
09:19PM -29.6814 142.3364 306° West  Level FlightAware Approximate
09:19PM -29.6709 142.3198 306° West 36,000  Level Aus ATC (Calculated)
09:19PM -29.6254 142.2477 306° West 36,000 -2,820 Level Aus ATC (Calculated)
09:19PM -29.5620 142.1470 306° West 369 425 34,200 -1,380 Descending FlightAware
09:20PM -29.5280 142.0930 306° West 369 425 34,800 960 Climbing FlightAware
09:20PM -29.4910 142.0350 306° West 368 423 35,400 660 Climbing FlightAware
09:21PM -29.4450 141.9630 306° West 368 423 35,800 240 Climbing FlightAware
09:22PM -29.4130 141.9130 306° West 368 423 35,800  Level FlightAware
09:22PM -29.3830 141.8650 306° West 368 423 35,800  Level FlightAware
09:23PM -29.3520 141.8160 306° West 368 423 35,800  Level FlightAware
09:23PM -29.3971 141.8878 306° West 36,000  Climbing Aus ATC (Calculated)
09:24PM -29.3220 141.7680 306° West 368 423 35,800 -180 Descending FlightAware
09:24PM -29.2910 141.7200 307° West 368 423 35,800  Level FlightAware
09:25PM -29.2600 141.6710 306° West 368 423 35,800  Level FlightAware
09:25PM -29.2300 141.6230 306° West 368 423 35,800 -1,320 Level FlightAware
09:26PM -29.1520 141.5050 307° West 370 426 34,300 -1,680 Descending FlightAware
09:26PM -29.2138 141.6012 306° West 36,000 -600 Climbing Aus ATC (Calculated)
09:26PM -29.1180 141.4530 307° West 371 427 34,000 -1,860 Descending FlightAware
09:27PM -29.0820 141.3970 306° West 371 427 34,000  Level FlightAware
09:28PM -29.0460 141.3400 306° West 372 428 34,000  Level FlightAware
09:28PM -29.0070 141.2790 306° West 373 429 34,000  Level FlightAware
09:29PM -28.9740 141.2280 306° West 373 429 34,000  Level FlightAware
09:30PM -28.9210 141.1480 307° West 376 433 34,000  Level FlightAware
09:30PM -28.8860 141.0930 306° West 377 434 34,000  Level FlightAware
09:31PM -28.8530 141.0430 307° West 378 435 34,000  Level FlightAware
09:31PM -28.8915 141.1019 306° West 36,000  Climbing Aus ATC (Calculated)
09:31PM -28.8180 140.9880 307° West 378 435 34,000 -2,220 Descending FlightAware
09:32PM -28.7830 140.9360 308° West 143 165 34,000  Level FlightAware
09:33PM -28.7430 140.8740 306° West 378 435 34,000  Level FlightAware
09:33PM -28.7060 140.8170 306° West 379 436 34,000  Level FlightAware
09:34PM -28.6680 140.7580 306° West 380 437 34,000  Level FlightAware
09:35PM -28.6180 140.6820 307° West 379 436 34,000  Level FlightAware
09:35PM -28.5780 140.6210 307° West 380 437 34,000  Level FlightAware
09:36PM -28.5430 140.5690 307° West 380 437 34,000  Level FlightAware
09:36PM -28.6138 140.6764 307° West 36,000  Climbing Aus ATC (Calculated)
09:36PM -28.5040 140.5090 306° West 378 435 34,000 -2,100 Descending FlightAware
09:37PM -28.4690 140.4560 306° West 378 435 34,000  Level FlightAware
09:38PM -28.4240 140.3880 307° West 379 436 34,000  Level FlightAware
09:38PM -28.3880 140.3330 307° West 380 437 34,000  Level FlightAware
09:39PM -28.3600 140.2920 308° West 380 437 34,000  Level FlightAware
09:39PM -28.3170 140.2250 306° West 380 437 34,000  Level FlightAware
09:40PM -28.2820 140.1710 306° West 380 437 34,000  Level FlightAware
09:41PM -28.2380 140.1060 308° West 381 438 34,000  Level FlightAware
09:41PM -28.2882 140.1828 307° West 36,000  Climbing Aus ATC (Calculated)
09:41PM -28.2060 140.0570 308° West 381 438 34,000 -2,340 Descending FlightAware
09:42PM -28.1740 140.0060 305° West 381 438 34,000  Level FlightAware
09:42PM -28.1420 139.9560 306° West 381 438 34,000  Level FlightAware
09:43PM -28.1100 139.9070 307° West 381 438 34,000  Level FlightAware
09:44PM -28.0790 139.8570 305° West 381 438 34,000  Level FlightAware
09:44PM -28.0470 139.8080 306° West 381 438 34,000  Level FlightAware
09:45PM -28.0150 139.7580 306° West 381 438 34,000  Level FlightAware
09:45PM -27.9840 139.7090 306° West 381 438 34,000  Level FlightAware
09:46PM -28.0076 139.7621 301° West 36,000  Climbing Aus ATC (Calculated)
09:46PM -27.9520 139.6590 306° West 381 438 34,000 -2,940 Descending FlightAware
09:47PM -27.9200 139.6100 306° West 381 438 34,000  Level FlightAware
09:47PM -27.8880 139.5610 306° West 381 438 34,000  Level FlightAware
09:48PM -27.8570 139.5110 305° West 381 438 34,000  Level FlightAware
09:48PM -27.8270 139.4650 306° West 381 438 34,000  Level FlightAware
09:49PM -27.7950 139.4150 306° West 381 438 34,000  Level FlightAware
09:50PM -27.7630 139.3650 306° West 381 438 34,000  Level FlightAware
09:51PM -27.6786 139.2740 307° West 36,000  Climbing Aus ATC (Calculated)
09:52PM -27.6451 139.1957 308° West  Level FlightAware Approximate
09:53PM -27.5833 139.1337 307° West  Level FlightAware Approximate
09:54PM -27.5211 139.0423 307° West  Level FlightAware Approximate
09:55PM -27.4588 138.9509 308° West  Level FlightAware Approximate
09:56PM -27.3965 138.8597 308° West  Level FlightAware Approximate
09:56PM -27.3953 138.8580 308° West 36,000  Level Aus ATC (Calculated)
09:57PM -27.3341 138.7686 308° West  Level FlightAware Approximate
09:58PM -27.2991 138.7176 308° West  Level FlightAware Approximate
09:58PM -27.2532 138.6508 308° West 36,000  Level Aus ATC (Calculated)
09:59PM -27.2362 138.6261 308° West  Level FlightAware Approximate
10:00PM -27.1567 138.5107 308° West  Level FlightAware Approximate
10:00PM -27.1107 138.4440 308° West 36,000  Level Aus ATC (Calculated)
10:01PM -27.1107 138.4440 308° West 36,000 -180 Level Aus ATC (Calculated)
10:02PM -27.0156 138.3065 308° West 36,000 -180 Level Aus ATC (Calculated)
10:04PM -26.9183 138.1663 308° West  Level FlightAware Approximate
10:05PM -26.8722 138.1001 308° West  Level FlightAware Approximate
10:06PM -26.8093 138.0098 308° West  Level FlightAware Approximate
10:06PM -26.7619 137.9419 308° West 36,000  Level Aus ATC (Calculated)
10:08PM -26.6467 137.7775 308° West  Level FlightAware Approximate
10:09PM -26.5833 137.6871 308° West  Level FlightAware Approximate
10:10PM -26.5198 137.5968 308° West  Level FlightAware Approximate
10:11PM -26.4562 137.5066 308° West  Level FlightAware Approximate
10:11PM -26.4439 137.4891 308° West 36,000  Level Aus ATC (Calculated)
10:13PM -26.3282 137.3256 308° West  Level FlightAware Approximate
10:14PM -26.2645 137.2357 308° West  Level FlightAware Approximate
10:14PM -26.2204 137.1736 308° West 36,000  Level Aus ATC (Calculated)
10:14PM -26.1884 137.1286 308° West 36,000 -6,000 Level Aus ATC (Calculated)
10:14PM -25.9930 136.8540 308° West 402 463 34,000 -2,880 Descending FlightAware
10:15PM -25.9490 136.7940 308° West 402 463 34,000  Level FlightAware
10:15PM -25.9150 136.7460 308° West 402 463 34,000  Level FlightAware
10:16PM -26.0924 136.9939 309° West 36,000  Climbing Aus ATC (Calculated)
10:16PM -25.8770 136.6940 308° West 401 461 34,000 -1,620 Descending FlightAware
10:17PM -25.8050 136.5930 308° West 402 463 34,000  Level FlightAware
10:17PM -25.7710 136.5450 308° West 402 463 34,000  Level FlightAware
10:18PM -25.7260 136.4840 309° West 401 461 34,000  Level FlightAware
10:19PM -25.6740 136.4110 308° West 401 461 34,000  Level FlightAware
10:19PM -25.8675 136.6798 309° West 2,400  Descending Aus ATC (Calculated)
10:19PM -25.6340 136.3560 308° West 401 461 34,000 36,420 Climbing FlightAware
10:19PM -25.8350 136.6346 309° West 2,400  Descending Aus ATC (Calculated)
10:20PM -25.5880 136.2920 308° West 401 461 34,000 25,260 Climbing FlightAware
10:21PM -25.7699 136.5442 309° West 2,400  Descending Aus ATC (Calculated)
10:21PM -25.5460 136.2330 308° West 401 461 34,000 40,320 Climbing FlightAware
10:21PM -25.4970 136.1670 309° West 403 464 34,000  Level FlightAware
10:22PM -25.4590 136.1150 309° West 404 465 34,000  Level FlightAware
10:23PM -25.4170 136.0570 309° West 405 466 34,000  Level FlightAware
10:23PM -25.3760 136.0000 309° West 405 466 34,000  Level FlightAware
10:24PM -25.3310 135.9390 309° West 407 468 34,000  Level FlightAware
10:24PM -25.2940 135.8880 309° West 407 468 34,000  Level FlightAware
10:25PM -25.2500 135.8280 309° West 407 468 34,000  Level FlightAware
10:25PM -25.5091 136.1838 309° West 2,400  Descending Aus ATC (Calculated)
10:25PM -25.2100 135.7730 309° West 407 468 34,000 28,260 Climbing FlightAware
10:26PM -25.4764 136.1389 309° West 2,400  Descending Aus ATC (Calculated)
10:26PM -25.1660 135.7130 309° West 407 468 34,000 30,540 Climbing FlightAware
10:27PM -25.1270 135.6610 310° West 407 468 34,000  Level FlightAware
10:27PM -25.0820 135.6000 309° West 407 468 34,000  Level FlightAware
10:28PM -25.0430 135.5460 309° West 407 468 34,000  Level FlightAware
10:28PM -24.9930 135.4780 309° West 408 470 34,000  Level FlightAware
10:29PM -24.9400 135.4070 309° West 409 471 34,000  Level FlightAware
10:30PM -25.2146 135.7803 309° West 2,400  Descending Aus ATC (Calculated)
10:30PM -24.8960 135.3470 309° West 408 470 34,000 37,920 Climbing FlightAware
10:30PM -25.1818 135.7355 309° West 2,400  Descending Aus ATC (Calculated)
10:30PM -24.8500 135.2850 309° West 408 470 34,000 42,120 Climbing FlightAware
10:31PM -24.8130 135.2350 309° West 408 470 34,000  Level FlightAware
10:31PM -25.1162 135.6462 309° West 2,400  Descending Aus ATC (Calculated)
10:32PM -24.7670 135.1730 309° West 410 472 34,000 32,640 Climbing FlightAware
10:32PM -25.0505 135.5569 309° West 2,400  Descending Aus ATC (Calculated)
10:32PM -24.7220 135.1120 309° West 411 473 34,000 41,580 Climbing FlightAware
10:33PM -24.6830 135.0600 309° West 407 468 32,900 -2,220 Descending FlightAware
10:33PM -24.6410 135.0040 310° West 403 464 31,500 -2,460 Descending FlightAware
10:33PM -24.9848 135.4677 309° West 2,400 -2,520 Descending Aus ATC (Calculated)
10:34PM -24.5980 134.9460 309° West 398 458 30,000 24,840 Climbing FlightAware
10:34PM -24.9190 135.3786 309° West 2,400 -2,280 Descending Aus ATC (Calculated)
10:34PM -24.5640 134.9000 309° West 393 452 28,900 30,240 Climbing FlightAware
10:35PM -24.5230 134.8460 309° West 385 443 27,600 -2,160 Descending FlightAware
10:36PM -24.4890 134.8000 309° West 377 434 26,500 -2,160 Descending FlightAware
10:36PM -24.4480 134.7450 309° West 370 426 25,200 -2,100 Descending FlightAware
10:36PM -24.7873 135.2007 309° West 2,400 -2,100 Descending Aus ATC (Calculated)
10:37PM -24.4110 134.6950 309° West 362 417 24,000 18,960 Climbing FlightAware
10:37PM -24.3740 134.6460 310° West 349 402 23,000 -1,800 Descending FlightAware
10:37PM -24.7214 135.1119 309° West 2,400 -1,980 Descending Aus ATC (Calculated)
10:38PM -24.3390 134.6000 310° West 341 392 21,900 17,040 Climbing FlightAware
10:38PM -24.3070 134.5570 310° West 341 392 20,600 -2,400 Descending FlightAware
10:39PM -24.6554 135.0232 309° West 2,400 -2,220 Descending Aus ATC (Calculated)
10:39PM -24.2710 134.5090 310° West 341 392 19,200 14,160 Climbing FlightAware
10:40PM -24.2330 134.4590 310° West 338 389 17,800 -2,400 Descending FlightAware
10:40PM -24.1980 134.4130 310° West 340 391 16,400 -2,220 Descending FlightAware
10:41PM -24.1650 134.3690 309° West 337 388 15,300 -1,920 Descending FlightAware
10:41PM -24.1290 134.3210 309° West 329 379 14,200 -1,860 Descending FlightAware
10:42PM -24.4902 134.8018 309° West 2,400 -1,800 Descending Aus ATC (Calculated)
10:42PM -24.0950 134.2760 309° West 324 373 13,100 11,880 Climbing FlightAware
10:42PM -24.0780 134.2490 305° West 322 371 12,300 -2,100 Descending FlightAware
10:43PM -24.0710 134.1910 278° West 312 359 11,200 -1,740 Descending FlightAware
10:44PM -24.0680 134.1420 274° West 306 352 10,300 -1,080 Descending FlightAware
10:44PM -24.0630 134.0860 276° West 276 318 10,000 -780 Descending FlightAware
10:44PM -24.0620 134.0600 272° West 266 306 9,600 -1,200 Descending FlightAware
10:45PM -24.2915 134.5369 297° West 2,400 -1,200 Descending Aus ATC (Calculated)
10:45PM -24.0600 134.0320 274° West 261 300 9,200 10,500 Climbing FlightAware
10:45PM -24.0580 134.0060 274° West 257 296 8,700 -1,380 Descending FlightAware
10:46PM -24.0550 133.9760 276° West 254 292 8,200 -1,260 Descending FlightAware
10:46PM -24.0540 133.9510 273° West 251 289 7,800 -1,320 Descending FlightAware
10:46PM -24.0500 133.9230 279° West 250 288 7,300 -1,260 Descending FlightAware
10:46PM -24.0470 133.9130 288° West 254 292 7,200 -1,140 Descending FlightAware
10:47PM -24.0420 133.9050 304° West 256 295 7,000 -1,020 Descending FlightAware
10:47PM -24.0330 133.8970 321° Northwest 253 291 6,900 -660 Descending FlightAware
10:47PM -24.0240 133.8920 333° Northwest 250 288 6,800 -900 Descending FlightAware
10:47PM -24.0050 133.8850 341° North 245 282 6,500 -780 Descending FlightAware
10:47PM -23.9820 133.8750 338° Northwest 235 270 6,300 -720 Descending FlightAware
10:48PM -23.9660 133.8690 341° North 233 268 6,100 -660 Descending FlightAware
10:48PM -23.9440 133.8600 339° North 224 258 5,900 -600 Descending FlightAware
10:48PM -23.9260 133.8530 340° North 212 244 5,700 -840 Descending FlightAware
10:49PM -23.9050 133.8440 339° North 205 236 5,300 -1,080 Descending FlightAware
10:49PM -23.8850 133.8360 340° North 198 228 4,900 -1,020 Descending FlightAware
10:50PM -23.8700 133.8300 340° North 189 217 4,600 -840 Descending FlightAware
10:50PM -23.8560 133.8240 339° North 177 204 4,400 -960 Descending FlightAware
10:50PM -23.8390 133.8170 339° North 170 196 4,000 -900 Descending FlightAware
10:50PM -23.8260 133.8120 341° North 167 192 3,800 -720 Descending FlightAware
10:51PM -23.8200 133.8110 351° North 170 196 3,700 -840 Descending FlightAware
10:51PM -23.7990 133.8140 North 169 194 3,300 -900 Descending FlightAware
10:51PM -23.7910 133.8210 39° Northeast 171 197 3,100 -960 Descending FlightAware
10:51PM -23.7870 133.8260 49° Northeast 169 194 3,000 -840 Descending FlightAware
10:52PM -23.7840 133.8310 57° Northeast 168 193 2,900 -900 Descending FlightAware
10:52PM -23.7820 133.8410 78° East 167 192 2,700 -1,020 Descending FlightAware
10:52PM -23.7810 133.8460 78° East 166 191 2,600 -900 Descending FlightAware
10:52PM -23.7850 133.8640 104° East 162 186 2,300 -840 Descending FlightAware
10:53PM -23.7960 133.8830 122° Southeast 159 183 1,900 -780 Descending FlightAware
10:53PM -23.8030 133.8970 119° Southeast 162 186 1,700 -600 Descending FlightAware
10:53PM -23.8090 133.9080 121° Southeast 90 104 -5,100 Descending FlightAware